createdAt,value
2022-10-30T00:02:20.967Z,16.60
2022-10-30T00:09:21.498Z,16.60
2022-10-30T00:16:22.488Z,16.50
2022-10-30T00:23:22.971Z,16.50
2022-10-30T00:30:23.385Z,16.50
2022-10-30T00:37:23.756Z,16.50
2022-10-30T00:44:43.260Z,16.40
2022-10-30T00:51:49.392Z,16.40
2022-10-30T00:58:55.395Z,16.30
2022-10-30T01:06:00.884Z,16.30
2022-10-30T01:13:01.964Z,16.30
2022-10-30T01:20:23.887Z,16.30
2022-10-30T01:27:36.353Z,16.20
2022-10-30T01:35:09.736Z,16.10
2022-10-30T01:42:50.173Z,16.00
2022-10-30T01:50:14.802Z,16.00
2022-10-30T01:57:39.857Z,15.90
2022-10-30T02:04:43.367Z,15.90
2022-10-30T02:11:47.247Z,15.80
2022-10-30T02:18:47.795Z,15.70
2022-10-30T02:25:48.272Z,15.50
2022-10-30T02:32:49.034Z,15.40
2022-10-30T02:39:48.981Z,15.30
2022-10-30T02:46:49.451Z,15.20
2022-10-30T02:53:49.978Z,15.00
2022-10-30T03:00:51.624Z,14.90
2022-10-30T03:07:53.822Z,14.90
2022-10-30T03:14:54.230Z,14.70
2022-10-30T03:21:54.869Z,14.60
2022-10-30T03:28:55.373Z,14.50
2022-10-30T03:35:56.168Z,14.40
2022-10-30T03:42:58.105Z,14.30
2022-10-30T03:49:58.726Z,14.10
2022-10-30T03:57:00.359Z,14.10
2022-10-30T04:04:05.233Z,14.00
2022-10-30T04:11:05.777Z,13.90
2022-10-30T04:18:07.110Z,13.80
2022-10-30T04:25:09.140Z,13.70
2022-10-30T04:32:10.593Z,13.60
2022-10-30T04:39:11.219Z,13.50
2022-10-30T04:46:12.282Z,13.40
2022-10-30T04:53:18.611Z,13.30
2022-10-30T05:00:21.757Z,13.20
2022-10-30T05:07:22.194Z,13.10
2022-10-30T05:14:22.553Z,13.00
2022-10-30T05:21:23.209Z,12.90
2022-10-30T05:28:23.461Z,12.80
2022-10-30T05:35:32.616Z,12.80
2022-10-30T05:42:33.437Z,12.80
2022-10-30T05:49:37.300Z,12.70
2022-10-30T05:56:42.687Z,12.60
2022-10-30T06:03:43.695Z,12.50
2022-10-30T06:10:45.219Z,12.40
2022-10-30T06:17:52.710Z,12.30
2022-10-30T06:24:57.894Z,12.20
2022-10-30T06:32:14.083Z,12.10
2022-10-30T06:39:16.832Z,12.10
2022-10-30T06:46:33.494Z,12.10
2022-10-30T06:53:34.764Z,12.10
2022-10-30T07:01:10.792Z,12.00
2022-10-30T07:08:11.611Z,12.00
2022-10-30T07:15:11.763Z,12.00
2022-10-30T07:22:17.664Z,12.00
2022-10-30T07:29:23.034Z,12.10
2022-10-30T07:36:43.547Z,12.20
2022-10-30T07:44:05.983Z,12.30
2022-10-30T07:51:21.821Z,12.50
2022-10-30T07:58:23.041Z,12.80
2022-10-30T08:05:32.722Z,13.00
2022-10-30T08:12:53.447Z,13.30
2022-10-30T08:19:53.508Z,13.60
2022-10-30T08:26:54.388Z,13.80
2022-10-30T08:33:56.218Z,14.00
2022-10-30T08:41:04.690Z,14.30
2022-10-30T08:48:11.260Z,14.60
2022-10-30T08:55:14.529Z,14.80
2022-10-30T09:02:15.503Z,15.10
2022-10-30T09:09:34.736Z,15.40
2022-10-30T09:16:36.600Z,15.80
2022-10-30T09:23:36.933Z,16.00
2022-10-30T09:30:56.891Z,16.30
2022-10-30T09:37:59.333Z,16.60
2022-10-30T09:45:30.235Z,16.90
2022-10-30T09:52:40.471Z,17.10
2022-10-30T09:59:41.224Z,17.40
2022-10-30T10:06:46.525Z,17.70
2022-10-30T10:14:04.711Z,17.80
2022-10-30T10:21:18.490Z,18.10
2022-10-30T10:28:44.504Z,18.30
2022-10-30T10:35:56.692Z,18.60
2022-10-30T10:43:06.134Z,18.80
2022-10-30T10:50:24.975Z,19.00
2022-10-30T10:57:37.658Z,19.10
2022-10-30T11:04:49.684Z,19.30
2022-10-30T11:11:52.320Z,19.40
2022-10-30T11:18:57.971Z,19.70
2022-10-30T11:25:58.567Z,19.90
2022-10-30T11:32:59.920Z,20.10
2022-10-30T11:40:11.276Z,20.20
2022-10-30T11:47:15.447Z,20.40
2022-10-30T11:54:21.351Z,20.60
2022-10-30T12:01:23.802Z,20.90
2022-10-30T12:08:24.124Z,21.10
2022-10-30T12:15:26.879Z,21.40
2022-10-30T12:22:31.328Z,21.60
2022-10-30T12:30:08.053Z,21.70
2022-10-30T12:37:22.179Z,21.80
2022-10-30T12:44:39.991Z,22.00
2022-10-30T12:51:54.252Z,22.10
2022-10-30T12:59:21.668Z,22.10
2022-10-30T13:06:32.653Z,22.20
2022-10-30T13:13:43.357Z,22.30
2022-10-30T13:21:17.888Z,22.40
2022-10-30T13:28:34.422Z,22.50
2022-10-30T13:35:37.476Z,22.60
2022-10-30T13:42:52.729Z,22.70
2022-10-30T13:50:20.920Z,22.80
2022-10-30T13:57:47.846Z,22.90
2022-10-30T14:05:02.286Z,23.00
2022-10-30T14:12:40.356Z,23.00
2022-10-30T14:20:22.653Z,23.00
2022-10-30T14:27:41.309Z,23.00
2022-10-30T14:34:52.330Z,23.00
2022-10-30T14:41:58.812Z,22.90
2022-10-30T14:49:33.812Z,22.70
2022-10-30T14:56:51.485Z,22.50
2022-10-30T15:04:19.193Z,22.30
2022-10-30T15:11:34.582Z,22.10
2022-10-30T15:18:35.099Z,21.90
2022-10-30T15:25:47.066Z,21.70
2022-10-30T15:32:47.612Z,21.50
2022-10-30T15:39:47.833Z,21.40
2022-10-30T15:46:51.764Z,21.20
2022-10-30T15:53:58.834Z,21.10
2022-10-30T16:01:01.367Z,20.90
2022-10-30T16:08:03.664Z,20.70
2022-10-30T16:15:08.588Z,20.40
2022-10-30T16:22:21.304Z,20.20
2022-10-30T16:29:26.671Z,20.00
2022-10-30T16:36:27.117Z,19.80
2022-10-30T16:43:33.164Z,19.70
2022-10-30T16:50:37.977Z,19.40
2022-10-30T16:57:43.514Z,19.20
2022-10-30T17:04:48.657Z,19.00
2022-10-30T17:12:12.684Z,18.90
2022-10-30T17:19:37.774Z,18.70
2022-10-30T17:26:39.217Z,18.50
2022-10-30T17:33:39.824Z,18.30
2022-10-30T17:40:40.247Z,18.10
2022-10-30T17:47:40.871Z,17.90
2022-10-30T17:54:42.269Z,17.80
2022-10-30T18:01:42.975Z,17.70
2022-10-30T18:08:47.806Z,17.50
2022-10-30T18:15:57.653Z,17.40
2022-10-30T18:22:58.910Z,17.30
2022-10-30T18:29:59.496Z,17.20
2022-10-30T18:36:59.944Z,17.10
2022-10-30T18:44:00.324Z,17.00
2022-10-30T18:51:00.785Z,16.90
2022-10-30T18:58:02.045Z,16.80
2022-10-30T19:05:22.764Z,16.70
2022-10-30T19:12:23.188Z,16.60
2022-10-30T19:19:23.745Z,16.50
2022-10-30T19:26:24.236Z,16.40
2022-10-30T19:33:25.572Z,16.40
2022-10-30T19:40:33.466Z,16.30
2022-10-30T19:47:33.878Z,16.20
2022-10-30T19:54:34.194Z,16.10
2022-10-30T20:01:34.764Z,16.00
2022-10-30T20:08:35.147Z,15.90
2022-10-30T20:15:39.621Z,15.80
2022-10-30T20:22:40.053Z,15.70
2022-10-30T20:29:42.556Z,15.60
2022-10-30T20:36:43.042Z,15.50
2022-10-30T20:43:43.381Z,15.40
2022-10-30T20:50:49.144Z,15.30
2022-10-30T20:57:50.857Z,15.30
2022-10-30T21:04:51.372Z,15.10
2022-10-30T21:11:51.494Z,15.00
2022-10-30T21:18:55.910Z,14.90
2022-10-30T21:26:04.550Z,14.80
2022-10-30T21:33:05.068Z,14.60
2022-10-30T21:40:05.990Z,14.50
2022-10-30T21:47:06.325Z,14.30
2022-10-30T21:54:06.588Z,14.10
2022-10-30T22:01:07.224Z,14.00
2022-10-30T22:08:07.575Z,13.90
2022-10-30T22:15:08.383Z,13.80
2022-10-30T22:22:09.118Z,13.80
2022-10-30T22:29:09.689Z,13.70
2022-10-30T22:36:15.006Z,13.60
2022-10-30T22:43:15.409Z,13.50
2022-10-30T22:50:16.063Z,13.40
2022-10-30T22:57:16.400Z,13.30
2022-10-30T23:04:16.857Z,13.20
2022-10-30T23:11:17.363Z,13.20
2022-10-30T23:18:18.567Z,13.20
2022-10-30T23:25:18.667Z,13.20
2022-10-30T23:32:19.670Z,13.10
2022-10-30T23:39:20.200Z,13.10
2022-10-30T23:46:20.336Z,13.00
2022-10-30T23:53:20.684Z,13.00
